Terminal Aerodrome Forecast
Issued by NWS

Home | Current Version | Previous Version | Text Only | Print | Product List | Glossary On
Versions: 1 2 3 4 5 6 7 8 9 10 11 12 13 14 15 16 17
000
FTUS46 KSEW 300500
TAFHQM
TAF
KHQM 300530Z 3006/3106 17007KT 6SM BR SCT008 OVC022
      TEMPO 3010/3014 4SM -RA BR OVC008
     FM301800 14012G18KT P6SM SCT025 BKN040 OVC120
     FM310000 19018G27KT P6SM -RA OVC015=

USA.gov is the U.S. government's official web portal to all federal, state and local government web resources and services.